Time;durP1;ratioP1;P1;durP2;ratioP2;P2;SDS_P1;SDS_P2;PMS_P1;PMS_P2;Temp;Humidity;BMP_temperature;BMP_pressure;BME280_temperature;BME280_humidity;BME280_pressure;Samples;Min_cycle;Max_cycle;Signal;HPM_P1;HPM_P2
2022/04/14 00:02:20;;;;;;;;;;;;;;;;;;4993981;28;135668;-67
2022/04/14 00:04:47;;;;;;;;;;;;;;;;;;4990935;28;136258;-68
2022/04/14 00:07:13;;;;;;;;;;;;;;;;;;4994156;28;131257;-67
2022/04/14 00:09:41;;;;;;;;;;;;;;;;;;4994410;28;122711;-67
2022/04/14 00:12:08;;;;;;;;;;;;;;;;;;4994821;28;120836;-67
2022/04/14 00:14:34;;;;;;;;;;;;;;;;;;4993917;28;135676;-67
2022/04/14 00:17:00;;;;;;;;;;;;;;;;;;4995280;28;124079;-67
2022/04/14 00:19:26;;;;;;;;;;;;;;;;;;4994536;28;133583;-67
2022/04/14 00:21:53;;;;;;;;;;;;;;;;;;4994518;28;136309;-67
2022/04/14 00:24:19;;;;;;;;;;;;;;;;;;4998497;28;123827;-66
2022/04/14 00:26:45;;;;;;;;;;;;;;;;;;4992892;28;137943;-67
2022/04/14 00:29:12;;;;;;;;;;;;;;;;;;4990373;28;106511;-67
2022/04/14 00:31:38;;;;;;;;;;;;;;;;;;4975491;28;117283;-67
2022/04/14 00:34:05;;;;;;;;;;;;;;;;;;4977532;28;137025;-67
2022/04/14 00:36:33;;;;;;;;;;;;;;;;;;4994888;28;122952;-68
2022/04/14 00:38:59;;;;;;;;;;;;;;;;;;4975661;28;133452;-68
2022/04/14 00:41:27;;;;;;;;;;;;;;;;;;4974777;28;135522;-67
2022/04/14 00:43:53;;;;;;;;;;;;;;;;;;4974662;28;122689;-68
2022/04/14 00:46:19;;;;;;;;;;;;;;;;;;4978431;28;136968;-68
2022/04/14 00:48:46;;;;;;;;;;;;;;;;;;4975052;28;122566;-68
2022/04/14 00:51:12;;;;;;;;;;;;;;;;;;4974432;28;137180;-67
2022/04/14 00:53:39;;;;;;;;;;;;;;;;;;4973771;28;135377;-68
2022/04/14 00:56:06;;;;;;;;;;;;;;;;;;4992545;28;123218;-68
2022/04/14 00:58:32;;;;;;;;;;;;;;;;;;4977521;28;136734;-67
2022/04/14 01:00:58;;;;;;;;;;;;;;;;;;5012567;22;137576;-67
2022/04/14 01:03:24;;;;;;;;;;;;;;;;;;4954599;28;120293;-68
2022/04/14 01:05:51;;;;;;;;;;;;;;;;;;4954901;28;130766;-67
2022/04/14 01:08:17;;;;;;;;;;;;;;;;;;4958414;28;105500;-68
2022/04/14 01:10:44;;;;;;;;;;;;;;;;;;4954715;28;133041;-67
2022/04/14 01:13:10;;;;;;;;;;;;;;;;;;4954250;28;137618;-67
2022/04/14 01:15:36;;;;;;;;;;;;;;;;;;4953730;28;121816;-67
2022/04/14 01:18:03;;;;;;;;;;;;;;;;;;4955214;28;136420;-68
2022/04/14 01:20:29;;;;;;;;;;;;;;;;;;4955955;28;106443;-69
2022/04/14 01:22:56;;;;;;;;;;;;;;;;;;4955366;28;116832;-69
2022/04/14 01:25:23;;;;;;;;;;;;;;;;;;4954703;28;135789;-69
2022/04/14 01:27:50;;;;;;;;;;;;;;;;;;4972626;28;134759;-69
2022/04/14 01:30:16;;;;;;;;;;;;;;;;;;4954154;28;137253;-69
2022/04/14 01:32:42;;;;;;;;;;;;;;;;;;4954252;28;137037;-69
2022/04/14 01:35:08;;;;;;;;;;;;;;;;;;4954751;28;122355;-68
2022/04/14 01:37:35;;;;;;;;;;;;;;;;;;4954354;28;136511;-69
2022/04/14 01:40:01;;;;;;;;;;;;;;;;;;4954284;28;137155;-69
2022/04/14 01:42:27;;;;;;;;;;;;;;;;;;4954647;28;125864;-68
2022/04/14 01:44:53;;;;;;;;;;;;;;;;;;4954172;28;136155;-69
2022/04/14 01:47:20;;;;;;;;;;;;;;;;;;4953831;28;137063;-68
2022/04/14 01:49:46;;;;;;;;;;;;;;;;;;4958082;28;123328;-68
2022/04/14 01:52:12;;;;;;;;;;;;;;;;;;4953949;28;136180;-68
2022/04/14 01:54:39;;;;;;;;;;;;;;;;;;4954585;28;121934;-68
2022/04/14 01:57:05;;;;;;;;;;;;;;;;;;4954249;28;136958;-69
2022/04/14 01:59:31;;;;;;;;;;;;;;;;;;4954256;28;135674;-68
2022/04/14 02:01:57;;;;;;;;;;;;;;;;;;4954211;28;121984;-68
2022/04/14 02:04:24;;;;;;;;;;;;;;;;;;4953988;28;114890;-67
2022/04/14 02:06:50;;;;;;;;;;;;;;;;;;4953692;28;135616;-67
2022/04/14 02:09:16;;;;;;;;;;;;;;;;;;4953917;28;123096;-67
2022/04/14 02:11:42;;;;;;;;;;;;;;;;;;4957632;28;133677;-68
2022/04/14 02:14:09;;;;;;;;;;;;;;;;;;4953160;28;122154;-69
2022/04/14 02:16:35;;;;;;;;;;;;;;;;;;4954227;28;135785;-68
2022/04/14 02:19:01;;;;;;;;;;;;;;;;;;4954231;28;134976;-68
2022/04/14 02:21:28;;;;;;;;;;;;;;;;;;4954241;28;120437;-69
2022/04/14 02:23:54;;;;;;;;;;;;;;;;;;4954125;28;136333;-69
2022/04/14 02:26:20;;;;;;;;;;;;;;;;;;4953156;28;137771;-69
2022/04/14 02:28:47;;;;;;;;;;;;;;;;;;4951028;28;122806;-69
2022/04/14 02:31:13;;;;;;;;;;;;;;;;;;4953963;28;135963;-69
2022/04/14 02:33:39;;;;;;;;;;;;;;;;;;4956334;28;136942;-69
2022/04/14 02:36:06;;;;;;;;;;;;;;;;;;4954122;28;137125;-67
2022/04/14 02:38:32;;;;;;;;;;;;;;;;;;4954519;28;107462;-68
2022/04/14 02:40:58;;;;;;;;;;;;;;;;;;4954180;28;111503;-67
2022/04/14 02:43:24;;;;;;;;;;;;;;;;;;4952822;28;137235;-67
2022/04/14 02:45:51;;;;;;;;;;;;;;;;;;4953594;28;136110;-68
2022/04/14 02:48:17;;;;;;;;;;;;;;;;;;4954286;28;105817;-67
2022/04/14 02:50:43;;;;;;;;;;;;;;;;;;4953075;28;130515;-67
2022/04/14 02:53:10;;;;;;;;;;;;;;;;;;4952030;28;135272;-67
2022/04/14 02:55:37;;;;;;;;;;;;;;;;;;4956504;28;125627;-67
2022/04/14 02:58:03;;;;;;;;;;;;;;;;;;4953130;28;135877;-67
2022/04/14 03:00:30;;;;;;;;;;;;;;;;;;4953036;28;120680;-68
2022/04/14 03:02:57;;;;;;;;;;;;;;;;;;4953313;28;136659;-67
2022/04/14 03:05:23;;;;;;;;;;;;;;;;;;4952714;28;137869;-67
2022/04/14 03:07:49;;;;;;;;;;;;;;;;;;4953209;28;123214;-67
2022/04/14 03:10:16;;;;;;;;;;;;;;;;;;4953810;28;137283;-67
2022/04/14 03:12:42;;;;;;;;;;;;;;;;;;4952456;28;136998;-67
2022/04/14 03:15:08;;;;;;;;;;;;;;;;;;4956374;28;121816;-67
2022/04/14 03:17:35;;;;;;;;;;;;;;;;;;4951298;28;137734;-67
2022/04/14 03:20:01;;;;;;;;;;;;;;;;;;4953917;28;118009;-67
2022/04/14 03:22:27;;;;;;;;;;;;;;;;;;4953372;28;135931;-67
2022/04/14 03:24:54;;;;;;;;;;;;;;;;;;4953744;28;107448;-67
2022/04/14 03:27:20;;;;;;;;;;;;;;;;;;4952746;28;122364;-67
2022/04/14 03:29:46;;;;;;;;;;;;;;;;;;4952353;28;133881;-69
2022/04/14 03:32:13;;;;;;;;;;;;;;;;;;4953284;28;119561;-67
2022/04/14 03:34:39;;;;;;;;;;;;;;;;;;4953272;28;121646;-67
2022/04/14 03:37:05;;;;;;;;;;;;;;;;;;4956302;28;133564;-67
2022/04/14 03:39:31;;;;;;;;;;;;;;;;;;4952743;28;121940;-67
2022/04/14 03:41:58;;;;;;;;;;;;;;;;;;4970833;28;129002;-67
2022/04/14 03:44:24;;;;;;;;;;;;;;;;;;4960041;28;138623;-67
2022/04/14 03:46:50;;;;;;;;;;;;;;;;;;4952542;28;120501;-67
2022/04/14 03:49:16;;;;;;;;;;;;;;;;;;4952122;28;137116;-68
2022/04/14 03:51:43;;;;;;;;;;;;;;;;;;4952123;28;137851;-67
2022/04/14 03:54:09;;;;;;;;;;;;;;;;;;4951964;28;123016;-67
2022/04/14 03:56:35;;;;;;;;;;;;;;;;;;4952974;28;125543;-67
2022/04/14 03:59:01;;;;;;;;;;;;;;;;;;4955826;28;137021;-67
2022/04/14 04:01:28;;;;;;;;;;;;;;;;;;4951475;28;135384;-67
2022/04/14 04:03:54;;;;;;;;;;;;;;;;;;4952928;28;135629;-68
2022/04/14 04:06:20;;;;;;;;;;;;;;;;;;4951521;28;121637;-67
2022/04/14 04:08:47;;;;;;;;;;;;;;;;;;4952869;28;135095;-67
2022/04/14 04:11:13;;;;;;;;;;;;;;;;;;4951509;28;137069;-67
2022/04/14 04:13:39;;;;;;;;;;;;;;;;;;4951730;28;123791;-67
2022/04/14 04:16:06;;;;;;;;;;;;;;;;;;4952527;28;132752;-67
2022/04/14 04:18:33;;;;;;;;;;;;;;;;;;4950891;28;136565;-67
2022/04/14 04:20:59;;;;;;;;;;;;;;;;;;4956304;28;121560;-68
2022/04/14 04:23:26;;;;;;;;;;;;;;;;;;4951959;28;135715;-68
2022/04/14 04:25:52;;;;;;;;;;;;;;;;;;4952149;28;121689;-68
2022/04/14 04:28:18;;;;;;;;;;;;;;;;;;4951311;28;136864;-68
2022/04/14 04:30:44;;;;;;;;;;;;;;;;;;4951198;28;135927;-68
2022/04/14 04:33:11;;;;;;;;;;;;;;;;;;4951783;28;125366;-67
2022/04/14 04:35:37;;;;;;;;;;;;;;;;;;4952580;28;107822;-68
2022/04/14 04:38:04;;;;;;;;;;;;;;;;;;4952795;28;135534;-68
2022/04/14 04:40:30;;;;;;;;;;;;;;;;;;4951920;28;121964;-68
2022/04/14 04:42:56;;;;;;;;;;;;;;;;;;4954742;28;136762;-67
2022/04/14 04:45:23;;;;;;;;;;;;;;;;;;4951737;28;121918;-67
2022/04/14 04:47:49;;;;;;;;;;;;;;;;;;4951869;28;136194;-68
2022/04/14 04:50:15;;;;;;;;;;;;;;;;;;4952267;28;135382;-68
2022/04/14 04:52:42;;;;;;;;;;;;;;;;;;4954643;28;108425;-69
2022/04/14 04:55:08;;;;;;;;;;;;;;;;;;4954121;28;133930;-69
2022/04/14 04:57:34;;;;;;;;;;;;;;;;;;4955180;28;124430;-69
2022/04/14 05:00:01;;;;;;;;;;;;;;;;;;4954749;28;123973;-67
2022/04/14 05:02:28;;;;;;;;;;;;;;;;;;4954502;28;136467;-67
2022/04/14 05:04:54;;;;;;;;;;;;;;;;;;4958635;28;132724;-69
2022/04/14 05:07:20;;;;;;;;;;;;;;;;;;4954312;28;136335;-69
2022/04/14 05:09:46;;;;;;;;;;;;;;;;;;4955573;28;107508;-69
2022/04/14 05:12:13;;;;;;;;;;;;;;;;;;4955472;28;122227;-69
2022/04/14 05:14:39;;;;;;;;;;;;;;;;;;4954109;28;135134;-69
2022/04/14 05:17:05;;;;;;;;;;;;;;;;;;4969463;28;136365;-69
2022/04/14 05:19:32;;;;;;;;;;;;;;;;;;4970048;28;122955;-69
2022/04/14 05:22:01;;;;;;;;;;;;;;;;;;4954749;28;133786;-69
2022/04/14 05:24:27;;;;;;;;;;;;;;;;;;4957807;28;136094;-67
2022/04/14 05:26:54;;;;;;;;;;;;;;;;;;4954094;28;136117;-67
2022/04/14 05:29:20;;;;;;;;;;;;;;;;;;4954203;28;117273;-68
2022/04/14 05:31:46;;;;;;;;;;;;;;;;;;4954872;28;123064;-68
2022/04/14 05:34:13;;;;;;;;;;;;;;;;;;4969501;28;136366;-68
2022/04/14 05:36:39;;;;;;;;;;;;;;;;;;4954453;28;138238;-68
2022/04/14 05:39:05;;;;;;;;;;;;;;;;;;4954656;28;122558;-70
2022/04/14 05:41:32;;;;;;;;;;;;;;;;;;4954627;28;127981;-69
2022/04/14 05:43:58;;;;;;;;;;;;;;;;;;4953236;28;137462;-67
2022/04/14 05:46:24;;;;;;;;;;;;;;;;;;4957582;28;124720;-67
2022/04/14 05:48:51;;;;;;;;;;;;;;;;;;4954388;28;135679;-68
2022/04/14 05:51:18;;;;;;;;;;;;;;;;;;4954368;28;107149;-67
2022/04/14 05:53:48;;;;;;;;;;;;;;;;;;4955063;28;117507;-67
2022/04/14 05:56:15;;;;;;;;;;;;;;;;;;4953190;28;135171;-67
2022/04/14 05:58:41;;;;;;;;;;;;;;;;;;4954673;28;106716;-67
2022/04/14 06:01:07;;;;;;;;;;;;;;;;;;4954669;28;118332;-67
2022/04/14 06:03:34;;;;;;;;;;;;;;;;;;4952950;28;135542;-67
2022/04/14 06:06:00;;;;;;;;;;;;;;;;;;4954400;28;123222;-67
2022/04/14 06:08:27;;;;;;;;;;;;;;;;;;4956145;28;134642;-67
2022/04/14 06:10:53;;;;;;;;;;;;;;;;;;4954478;28;126915;-67
2022/04/14 06:13:19;;;;;;;;;;;;;;;;;;4952877;28;136601;-68
2022/04/14 06:15:46;;;;;;;;;;;;;;;;;;4954174;28;132998;-68
2022/04/14 06:18:12;;;;;;;;;;;;;;;;;;4954514;28;116896;-69
2022/04/14 06:20:38;;;;;;;;;;;;;;;;;;4953303;28;135791;-68
2022/04/14 06:23:05;;;;;;;;;;;;;;;;;;4953662;28;133922;-68
2022/04/14 06:25:31;;;;;;;;;;;;;;;;;;4954596;28;123136;-68
2022/04/14 06:27:58;;;;;;;;;;;;;;;;;;4953797;28;112042;-68
2022/04/14 06:30:24;;;;;;;;;;;;;;;;;;4956372;28;137282;-68
2022/04/14 06:32:50;;;;;;;;;;;;;;;;;;4951472;28;136508;-68
2022/04/14 06:35:17;;;;;;;;;;;;;;;;;;4953247;28;137882;-68
2022/04/14 06:37:43;;;;;;;;;;;;;;;;;;4953146;28;125100;-69
2022/04/14 06:40:09;;;;;;;;;;;;;;;;;;4953859;28;136839;-68
2022/04/14 06:42:55;;;;;;;;;;;;;;;;;;4953316;28;107921;-67
2022/04/14 06:45:22;;;;;;;;;;;;;;;;;;4953064;28;122558;-69
2022/04/14 06:47:49;;;;;;;;;;;;;;;;;;4953932;28;127504;-69
2022/04/14 06:50:15;;;;;;;;;;;;;;;;;;4953031;28;137476;-67
2022/04/14 06:52:41;;;;;;;;;;;;;;;;;;4957078;28;116114;-68
2022/04/14 06:55:08;;;;;;;;;;;;;;;;;;4953300;28;135743;-67
2022/04/14 06:57:34;;;;;;;;;;;;;;;;;;4951688;28;119402;-68
2022/04/14 07:00:00;;;;;;;;;;;;;;;;;;4953975;28;136392;-68
2022/04/14 07:02:26;;;;;;;;;;;;;;;;;;4951686;28;135805;-68
2022/04/14 07:04:53;;;;;;;;;;;;;;;;;;4954912;28;106236;-68
2022/04/14 07:07:19;;;;;;;;;;;;;;;;;;4952824;28;137093;-68
2022/04/14 07:09:45;;;;;;;;;;;;;;;;;;4953499;28;136845;-68
2022/04/14 07:12:13;;;;;;;;;;;;;;;;;;4953315;28;121846;-67
2022/04/14 07:14:39;;;;;;;;;;;;;;;;;;4955239;28;135711;-68
2022/04/14 07:17:06;;;;;;;;;;;;;;;;;;4953393;28;118738;-68
2022/04/14 07:19:32;;;;;;;;;;;;;;;;;;4952908;28;133107;-68
2022/04/14 07:21:58;;;;;;;;;;;;;;;;;;4952112;28;126113;-68
2022/04/14 07:24:25;;;;;;;;;;;;;;;;;;4953138;28;119230;-68
2022/04/14 07:26:51;;;;;;;;;;;;;;;;;;4954357;28;107435;-68
2022/04/14 07:29:17;;;;;;;;;;;;;;;;;;4951660;28;134093;-68
2022/04/14 07:31:45;;;;;;;;;;;;;;;;;;4952934;28;113318;-68
2022/04/14 07:34:14;;;;;;;;;;;;;;;;;;4971860;28;111368;-68
2022/04/14 07:36:40;;;;;;;;;;;;;;;;;;4951153;28;121608;-68
2022/04/14 07:39:06;;;;;;;;;;;;;;;;;;4953324;28;137436;-68
2022/04/14 07:41:32;;;;;;;;;;;;;;;;;;4952019;28;137092;-68
2022/04/14 07:43:59;;;;;;;;;;;;;;;;;;4952185;28;122212;-68
2022/04/14 07:46:25;;;;;;;;;;;;;;;;;;4952741;28;115852;-68
2022/04/14 07:48:51;;;;;;;;;;;;;;;;;;4952330;28;137731;-68
2022/04/14 07:51:18;;;;;;;;;;;;;;;;;;4952717;28;121938;-68
2022/04/14 07:53:44;;;;;;;;;;;;;;;;;;4953288;28;120286;-69
2022/04/14 07:56:10;;;;;;;;;;;;;;;;;;4956046;28;135142;-69
2022/04/14 07:58:43;;;;;;;;;;;;;;;;;;4951419;28;136464;-69
2022/04/14 08:01:09;;;;;;;;;;;;;;;;;;4951196;28;134407;-69
2022/04/14 08:03:38;;;;;;;;;;;;;;;;;;4953119;28;120613;-69
2022/04/14 08:06:05;;;;;;;;;;;;;;;;;;4952025;28;136480;-67
2022/04/14 08:08:32;;;;;;;;;;;;;;;;;;4952442;28;134470;-68
2022/04/14 08:11:02;;;;;;;;;;;;;;;;;;4952180;28;122549;-68
2022/04/14 08:13:30;;;;;;;;;;;;;;;;;;4952271;28;118340;-67
2022/04/14 08:16:01;;;;;;;;;;;;;;;;;;4952595;28;132792;-68
2022/04/14 08:18:28;;;;;;;;;;;;;;;;;;4955781;28;121485;-67
2022/04/14 08:20:57;;;;;;;;;;;;;;;;;;4952351;28;136380;-68
2022/04/14 08:23:23;;;;;;;;;;;;;;;;;;4952066;28;123231;-67
2022/04/14 08:25:49;;;;;;;;;;;;;;;;;;4952953;28;135423;-67
2022/04/14 08:28:40;;;;;;;;;;;;;;;;;;4955402;28;107374;-68
2022/04/14 08:31:07;;;;;;;;;;;;;;;;;;4956246;28;110138;-67
2022/04/14 08:33:33;;;;;;;;;;;;;;;;;;4955845;28;136229;-67
2022/04/14 08:35:59;;;;;;;;;;;;;;;;;;4954708;28;137836;-67
2022/04/14 08:38:25;;;;;;;;;;;;;;;;;;4955173;28;125830;-67
2022/04/14 08:40:52;;;;;;;;;;;;;;;;;;4958983;28;136563;-67
2022/04/14 08:43:38;;;;;;;;;;;;;;;;;;4954539;28;119889;-67
2022/04/14 08:46:06;;;;;;;;;;;;;;;;;;4956609;28;113262;-68
2022/04/14 08:48:32;;;;;;;;;;;;;;;;;;4954515;28;137054;-68
2022/04/14 08:50:59;;;;;;;;;;;;;;;;;;4957243;28;106723;-67
2022/04/14 08:53:25;;;;;;;;;;;;;;;;;;4954549;28;137737;-68
2022/04/14 08:55:51;;;;;;;;;;;;;;;;;;4955222;28;135789;-67
2022/04/14 08:58:19;;;;;;;;;;;;;;;;;;4954377;28;123632;-67
2022/04/14 09:00:45;;;;;;;;;;;;;;;;;;4953765;28;137019;-67
2022/04/14 09:03:31;;;;;;;;;;;;;;;;;;4977817;28;138456;-68
2022/04/14 09:05:58;;;;;;;;;;;;;;;;;;4961390;28;136753;-68
2022/04/14 09:08:25;;;;;;;;;;;;;;;;;;4954296;28;135836;-68
2022/04/14 09:10:52;;;;;;;;;;;;;;;;;;4955308;28;114734;-68
2022/04/14 09:13:18;;;;;;;;;;;;;;;;;;4954025;28;137150;-67
2022/04/14 09:15:44;;;;;;;;;;;;;;;;;;4955012;28;127681;-67
2022/04/14 09:18:11;;;;;;;;;;;;;;;;;;4954693;28;121056;-67
2022/04/14 09:20:37;;;;;;;;;;;;;;;;;;4955502;28;129738;-67
2022/04/14 09:23:07;;;;;;;;;;;;;;;;;;4954662;28;132526;-67
2022/04/14 09:25:34;;;;;;;;;;;;;;;;;;4958372;28;123235;-67
2022/04/14 09:28:00;;;;;;;;;;;;;;;;;;4953717;28;137149;-67
2022/04/14 09:30:27;;;;;;;;;;;;;;;;;;4955894;28;107289;-68
2022/04/14 09:32:55;;;;;;;;;;;;;;;;;;4954803;28;134875;-68
2022/04/14 09:35:21;;;;;;;;;;;;;;;;;;4953279;28;135732;-67
2022/04/14 09:37:48;;;;;;;;;;;;;;;;;;4953042;28;124153;-67
2022/04/14 09:40:14;;;;;;;;;;;;;;;;;;4954070;28;135184;-67
2022/04/14 09:42:41;;;;;;;;;;;;;;;;;;4953427;28;136960;-68
2022/04/14 09:45:07;;;;;;;;;;;;;;;;;;4958934;28;106282;-68
2022/04/14 09:47:54;;;;;;;;;;;;;;;;;;4955103;28;106402;-67
2022/04/14 09:50:20;;;;;;;;;;;;;;;;;;4953610;28;106854;-68
2022/04/14 09:52:46;;;;;;;;;;;;;;;;;;4953882;28;136374;-68
2022/04/14 09:55:15;;;;;;;;;;;;;;;;;;4953601;28;125388;-68
2022/04/14 09:57:41;;;;;;;;;;;;;;;;;;4953573;28;122589;-68
2022/04/14 10:00:07;;;;;;;;;;;;;;;;;;4954191;28;136853;-69
2022/04/14 10:02:37;;;;;;;;;;;;;;;;;;4954535;28;106161;-68
2022/04/14 10:05:05;;;;;;;;;;;;;;;;;;4954003;28;123133;-68
2022/04/14 10:07:32;;;;;;;;;;;;;;;;;;4957945;28;135238;-69
2022/04/14 10:09:58;;;;;;;;;;;;;;;;;;4954816;28;106352;-68
2022/04/14 10:12:24;;;;;;;;;;;;;;;;;;4952326;28;136525;-68
2022/04/14 10:14:51;;;;;;;;;;;;;;;;;;4953149;28;137921;-68
2022/04/14 10:17:17;;;;;;;;;;;;;;;;;;4953645;28;114829;-67
2022/04/14 10:19:43;;;;;;;;;;;;;;;;;;4953842;28;135080;-68
2022/04/14 10:22:09;;;;;;;;;;;;;;;;;;4952963;28;137301;-68
2022/04/14 10:24:36;;;;;;;;;;;;;;;;;;4953001;28;123990;-68
2022/04/14 10:27:02;;;;;;;;;;;;;;;;;;4953778;28;136162;-68
2022/04/14 10:29:28;;;;;;;;;;;;;;;;;;4957398;28;107516;-68
2022/04/14 10:31:55;;;;;;;;;;;;;;;;;;4954187;28;119801;-68
2022/04/14 10:34:21;;;;;;;;;;;;;;;;;;4952901;28;137696;-68
2022/04/14 10:36:47;;;;;;;;;;;;;;;;;;4953681;28;119516;-68
2022/04/14 10:39:13;;;;;;;;;;;;;;;;;;4953090;28;136806;-68
2022/04/14 10:41:40;;;;;;;;;;;;;;;;;;4952760;28;126992;-68
2022/04/14 10:44:06;;;;;;;;;;;;;;;;;;4952943;28;123830;-68
2022/04/14 10:46:32;;;;;;;;;;;;;;;;;;4953215;28;136909;-68
2022/04/14 10:49:00;;;;;;;;;;;;;;;;;;4954107;28;107502;-68
2022/04/14 10:51:30;;;;;;;;;;;;;;;;;;4955991;28;121829;-68
2022/04/14 10:53:57;;;;;;;;;;;;;;;;;;4953242;28;138659;-68
2022/04/14 10:56:23;;;;;;;;;;;;;;;;;;4952905;28;121866;-68
2022/04/14 10:58:50;;;;;;;;;;;;;;;;;;4952724;28;136004;-68
2022/04/14 11:01:16;;;;;;;;;;;;;;;;;;4952918;28;136026;-68
2022/04/14 11:03:43;;;;;;;;;;;;;;;;;;4952257;28;123816;-69
2022/04/14 11:06:09;;;;;;;;;;;;;;;;;;4953076;28;131490;-68
2022/04/14 11:08:36;;;;;;;;;;;;;;;;;;4953317;28;107404;-68
2022/04/14 11:11:02;;;;;;;;;;;;;;;;;;4953006;28;123544;-67
2022/04/14 11:13:28;;;;;;;;;;;;;;;;;;4955329;28;136579;-68
2022/04/14 11:15:54;;;;;;;;;;;;;;;;;;4952582;28;122121;-68
2022/04/14 11:18:21;;;;;;;;;;;;;;;;;;4952603;28;136211;-68
2022/04/14 11:20:49;;;;;;;;;;;;;;;;;;4952984;28;135797;-68
2022/04/14 11:23:15;;;;;;;;;;;;;;;;;;4952834;28;123439;-69
2022/04/14 11:25:42;;;;;;;;;;;;;;;;;;4952886;28;135446;-68
2022/04/14 11:28:08;;;;;;;;;;;;;;;;;;4950874;28;136751;-68
2022/04/14 11:30:36;;;;;;;;;;;;;;;;;;4953378;28;105746;-68
2022/04/14 11:33:02;;;;;;;;;;;;;;;;;;4953007;28;137016;-68
2022/04/14 11:35:29;;;;;;;;;;;;;;;;;;4957093;28;106273;-68
2022/04/14 11:37:55;;;;;;;;;;;;;;;;;;4953723;28;125196;-68
2022/04/14 11:40:21;;;;;;;;;;;;;;;;;;4952229;28;138045;-68
2022/04/14 11:42:48;;;;;;;;;;;;;;;;;;4967482;28;123300;-68
2022/04/14 11:45:14;;;;;;;;;;;;;;;;;;4954398;28;106902;-68
2022/04/14 11:47:40;;;;;;;;;;;;;;;;;;4951775;28;137046;-68
2022/04/14 11:50:06;;;;;;;;;;;;;;;;;;4952155;28;123252;-68
2022/04/14 11:52:33;;;;;;;;;;;;;;;;;;4934513;28;132303;-69
2022/04/14 11:55:00;;;;;;;;;;;;;;;;;;4956320;28;136428;-69
2022/04/14 11:57:31;;;;;;;;;;;;;;;;;;4951146;28;137625;-68
2022/04/14 11:59:57;;;;;;;;;;;;;;;;;;4950521;28;135872;-68
2022/04/14 12:02:24;;;;;;;;;;;;;;;;;;4950935;28;123320;-68
2022/04/14 12:04:50;;;;;;;;;;;;;;;;;;4952406;28;136348;-68
2022/04/14 12:07:17;;;;;;;;;;;;;;;;;;4951789;28;137897;-68
2022/04/14 12:09:43;;;;;;;;;;;;;;;;;;4952094;28;123169;-68
2022/04/14 12:12:10;;;;;;;;;;;;;;;;;;4951083;28;136773;-68
2022/04/14 12:14:36;;;;;;;;;;;;;;;;;;4952278;28;124293;-68
2022/04/14 12:17:03;;;;;;;;;;;;;;;;;;4954593;28;124140;-68
2022/04/14 12:19:30;;;;;;;;;;;;;;;;;;4952931;28;116390;-68
2022/04/14 12:21:56;;;;;;;;;;;;;;;;;;4952750;28;119178;-67
2022/04/14 12:24:23;;;;;;;;;;;;;;;;;;4952002;28;134969;-68
2022/04/14 12:26:49;;;;;;;;;;;;;;;;;;4951012;28;135734;-68
2022/04/14 12:29:15;;;;;;;;;;;;;;;;;;4952467;28;106513;-68
2022/04/14 12:31:42;;;;;;;;;;;;;;;;;;4952214;28;131296;-68
2022/04/14 12:34:08;;;;;;;;;;;;;;;;;;4951730;28;136602;-68
2022/04/14 12:36:51;;;;;;;;;;;;;;;;;;4952565;28;121056;-68
2022/04/14 12:39:18;;;;;;;;;;;;;;;;;;4955269;28;136925;-68
2022/04/14 12:41:44;;;;;;;;;;;;;;;;;;4933129;28;123097;-68
2022/04/14 12:44:12;;;;;;;;;;;;;;;;;;4951547;28;137525;-68
2022/04/14 12:46:39;;;;;;;;;;;;;;;;;;4934905;28;131286;-68
2022/04/14 12:49:06;;;;;;;;;;;;;;;;;;4951848;28;119050;-67
2022/04/14 12:51:49;;;;;;;;;;;;;;;;;;4952078;28;136350;-67
2022/04/14 12:54:15;;;;;;;;;;;;;;;;;;4951243;28;132810;-69
2022/04/14 12:56:42;;;;;;;;;;;;;;;;;;4951080;28;123932;-68
2022/04/14 12:59:08;;;;;;;;;;;;;;;;;;4952878;28;107404;-68
2022/04/14 13:01:36;;;;;;;;;;;;;;;;;;4954379;28;136188;-68
2022/04/14 13:04:02;;;;;;;;;;;;;;;;;;4953192;28;131657;-68
2022/04/14 13:06:28;;;;;;;;;;;;;;;;;;4965027;28;138045;-68
2022/04/14 13:08:55;;;;;;;;;;;;;;;;;;4951482;28;126798;-68
2022/04/14 13:11:21;;;;;;;;;;;;;;;;;;4950047;28;137502;-68
2022/04/14 13:13:47;;;;;;;;;;;;;;;;;;4953832;28;137221;-68
2022/04/14 13:16:14;;;;;;;;;;;;;;;;;;4956377;28;105858;-68
2022/04/14 13:18:41;;;;;;;;;;;;;;;;;;4954188;28;135211;-68
2022/04/14 13:21:08;;;;;;;;;;;;;;;;;;4968839;28;137281;-68
2022/04/14 13:23:34;;;;;;;;;;;;;;;;;;4958464;28;123376;-68
2022/04/14 13:26:01;;;;;;;;;;;;;;;;;;4954909;28;131451;-68
2022/04/14 13:28:28;;;;;;;;;;;;;;;;;;4953420;28;123152;-69
2022/04/14 13:30:54;;;;;;;;;;;;;;;;;;4954058;28;131306;-69
2022/04/14 13:33:20;;;;;;;;;;;;;;;;;;4953913;28;137176;-67
2022/04/14 13:35:46;;;;;;;;;;;;;;;;;;4969680;28;121154;-68
2022/04/14 13:38:15;;;;;;;;;;;;;;;;;;4974102;28;136642;-67
2022/04/14 13:40:41;;;;;;;;;;;;;;;;;;4967995;28;129100;-68
2022/04/14 13:43:08;;;;;;;;;;;;;;;;;;4957058;28;124077;-68
2022/04/14 13:45:34;;;;;;;;;;;;;;;;;;4954327;28;137115;-68
2022/04/14 13:48:00;;;;;;;;;;;;;;;;;;4954467;28;118913;-69
2022/04/14 13:50:27;;;;;;;;;;;;;;;;;;4953912;28;136013;-68
2022/04/14 13:52:54;;;;;;;;;;;;;;;;;;4953872;28;138525;-68
2022/04/14 13:55:22;;;;;;;;;;;;;;;;;;4953091;28;123525;-68
2022/04/14 13:57:48;;;;;;;;;;;;;;;;;;4953365;28;136092;-68
2022/04/14 14:00:15;;;;;;;;;;;;;;;;;;4953149;28;138276;-67
2022/04/14 14:02:41;;;;;;;;;;;;;;;;;;4953818;28;122167;-68
2022/04/14 14:05:09;;;;;;;;;;;;;;;;;;4956355;28;137109;-68
2022/04/14 14:07:35;;;;;;;;;;;;;;;;;;4953490;28;123231;-68
2022/04/14 14:10:01;;;;;;;;;;;;;;;;;;4954231;28;137233;-68
2022/04/14 14:12:27;;;;;;;;;;;;;;;;;;4953285;28;136091;-68
2022/04/14 14:14:54;;;;;;;;;;;;;;;;;;4953951;28;119980;-67
2022/04/14 14:17:20;;;;;;;;;;;;;;;;;;4953051;28;136809;-67
2022/04/14 14:19:46;;;;;;;;;;;;;;;;;;4953492;28;113285;-68
2022/04/14 14:22:13;;;;;;;;;;;;;;;;;;4953400;28;118624;-68
2022/04/14 14:24:39;;;;;;;;;;;;;;;;;;4953120;28;136205;-67
2022/04/14 14:27:05;;;;;;;;;;;;;;;;;;4956543;28;128812;-68
2022/04/14 14:29:32;;;;;;;;;;;;;;;;;;4953948;28;137410;-68
2022/04/14 14:31:58;;;;;;;;;;;;;;;;;;4953446;28;136515;-68
2022/04/14 14:34:24;;;;;;;;;;;;;;;;;;4952767;28;117038;-68
2022/04/14 14:36:51;;;;;;;;;;;;;;;;;;4953854;28;137041;-68
2022/04/14 14:39:19;;;;;;;;;;;;;;;;;;4953158;28;115459;-68
2022/04/14 14:41:46;;;;;;;;;;;;;;;;;;4953645;28;110914;-68
2022/04/14 14:44:12;;;;;;;;;;;;;;;;;;4952889;28;123773;-68
2022/04/14 14:46:38;;;;;;;;;;;;;;;;;;4952729;28;137379;-68
2022/04/14 14:49:05;;;;;;;;;;;;;;;;;;4956360;28;124222;-69
2022/04/14 14:51:31;;;;;;;;;;;;;;;;;;4952916;28;138293;-68
2022/04/14 14:53:57;;;;;;;;;;;;;;;;;;4953687;28;123901;-68
2022/04/14 14:56:24;;;;;;;;;;;;;;;;;;4952322;28;135948;-68
2022/04/14 15:01:35;;;;;;;;;;;;;;;;;;4952925;28;122636;-67
2022/04/14 15:04:02;;;;;;;;;;;;;;;;;;4953388;28;137458;-68
2022/04/14 15:06:29;;;;;;;;;;;;;;;;;;4952931;28;136653;-68
2022/04/14 15:08:55;;;;;;;;;;;;;;;;;;4952592;28;123715;-69
2022/04/14 15:11:22;;;;;;;;;;;;;;;;;;4954841;28;136631;-68
2022/04/14 15:13:48;;;;;;;;;;;;;;;;;;4952618;28;123295;-69
2022/04/14 15:16:14;;;;;;;;;;;;;;;;;;4953826;28;125058;-69
2022/04/14 15:18:40;;;;;;;;;;;;;;;;;;4951743;28;137208;-69
2022/04/14 15:21:07;;;;;;;;;;;;;;;;;;4953089;28;122667;-69
2022/04/14 15:23:33;;;;;;;;;;;;;;;;;;4953281;28;135243;-69
2022/04/14 15:25:59;;;;;;;;;;;;;;;;;;4952255;28;135765;-69
2022/04/14 15:28:26;;;;;;;;;;;;;;;;;;4952143;28;122731;-69
2022/04/14 15:30:52;;;;;;;;;;;;;;;;;;4953034;28;135838;-69
2022/04/14 15:33:19;;;;;;;;;;;;;;;;;;4955288;28;137692;-69
2022/04/14 15:35:45;;;;;;;;;;;;;;;;;;4952332;28;135253;-69
2022/04/14 15:38:11;;;;;;;;;;;;;;;;;;4952158;28;137298;-69
2022/04/14 15:40:38;;;;;;;;;;;;;;;;;;4952976;28;122020;-69
2022/04/14 15:43:04;;;;;;;;;;;;;;;;;;4951280;28;135499;-69
2022/04/14 15:45:31;;;;;;;;;;;;;;;;;;4952603;28;137776;-69
2022/04/14 15:47:57;;;;;;;;;;;;;;;;;;4953328;28;120716;-69
2022/04/14 15:50:24;;;;;;;;;;;;;;;;;;4952899;28;110727;-70
2022/04/14 15:52:50;;;;;;;;;;;;;;;;;;4955924;28;135486;-69
2022/04/14 15:55:17;;;;;;;;;;;;;;;;;;4951718;28;136633;-69
2022/04/14 15:57:43;;;;;;;;;;;;;;;;;;4950017;28;135687;-68
2022/04/14 16:00:11;;;;;;;;;;;;;;;;;;4952019;28;125218;-69
2022/04/14 16:02:37;;;;;;;;;;;;;;;;;;4952187;28;108269;-69
2022/04/14 16:05:04;;;;;;;;;;;;;;;;;;4952328;28;135732;-68
2022/04/14 16:07:32;;;;;;;;;;;;;;;;;;4952574;28;120619;-69
2022/04/14 16:12:43;;;;;;;;;;;;;;;;;;4950947;28;136426;-69
2022/04/14 16:15:09;;;;;;;;;;;;;;;;;;4956295;28;123956;-69
2022/04/14 16:17:35;;;;;;;;;;;;;;;;;;4933684;28;137352;-69
2022/04/14 16:20:02;;;;;;;;;;;;;;;;;;4952737;28;121826;-69
2022/04/14 16:22:28;;;;;;;;;;;;;;;;;;4950603;28;135167;-69
2022/04/14 16:24:54;;;;;;;;;;;;;;;;;;4951835;28;136345;-67
2022/04/14 16:27:20;;;;;;;;;;;;;;;;;;4951463;28;120073;-67
2022/04/14 16:29:47;;;;;;;;;;;;;;;;;;4952054;28;136078;-68
2022/04/14 16:32:13;;;;;;;;;;;;;;;;;;4951774;28;136536;-69